createdAt,value
2022-11-25T00:00:37.682Z,214.20
2022-11-25T00:01:22.918Z,124.22
2022-11-25T00:02:08.106Z,107.59
2022-11-25T00:02:53.166Z,110.25
2022-11-25T00:03:38.156Z,101.47
2022-11-25T00:04:23.153Z,118.06
2022-11-25T00:05:08.236Z,172.15
2022-11-25T00:05:52.876Z,131.95
2022-11-25T00:06:37.916Z,131.95
2022-11-25T00:07:23.212Z,178.52
2022-11-25T00:08:08.741Z,275.54
2022-11-25T00:08:53.592Z,142.62
2022-11-25T00:09:39.185Z,134.43
2022-11-25T00:10:23.607Z,135.40
2022-11-25T00:11:08.609Z,141.20
2022-11-25T00:11:53.445Z,142.17
2022-11-25T00:12:38.566Z,136.37
2022-11-25T00:13:23.435Z,135.40
2022-11-25T00:14:08.554Z,130.11
2022-11-25T00:14:53.741Z,132.04
2022-11-25T00:15:38.788Z,133.01
2022-11-25T00:16:23.816Z,134.93
2022-11-25T00:17:08.733Z,133.01
2022-11-25T00:17:53.864Z,129.60
2022-11-25T00:18:38.952Z,140.72
2022-11-25T00:19:23.990Z,204.06
2022-11-25T00:20:08.919Z,262.09
2022-11-25T00:20:54.196Z,232.11
2022-11-25T00:21:39.390Z,202.13
2022-11-25T00:22:24.332Z,184.09
2022-11-25T00:23:09.358Z,207.62
2022-11-25T00:23:54.332Z,231.35
2022-11-25T00:24:39.265Z,142.19
2022-11-25T00:25:24.588Z,124.99
2022-11-25T00:26:09.792Z,248.84
2022-11-25T00:26:55.079Z,172.24
2022-11-25T00:27:39.394Z,204.71
2022-11-25T00:28:24.602Z,204.71
2022-11-25T00:29:09.612Z,302.16
2022-11-25T00:29:55.291Z,302.16
2022-11-25T00:30:39.714Z,280.50
2022-11-25T00:31:25.007Z,186.26
2022-11-25T00:32:09.947Z,164.32
2022-11-25T00:32:54.879Z,157.47
2022-11-25T00:33:39.942Z,166.28
2022-11-25T00:34:24.793Z,113.46
2022-11-25T00:35:09.701Z,107.59
2022-11-25T00:35:55.272Z,83.14
2022-11-25T00:36:40.166Z,89.98
2022-11-25T00:37:25.219Z,101.72
2022-11-25T00:38:09.970Z,108.32
2022-11-25T00:38:55.648Z,104.66
2022-11-25T00:39:40.494Z,104.66
2022-11-25T00:40:25.553Z,109.55
2022-11-25T00:41:10.397Z,105.42
2022-11-25T00:41:55.565Z,107.32
2022-11-25T00:42:40.616Z,95.62
2022-11-25T00:43:25.676Z,97.57
2022-11-25T00:44:10.593Z,107.32
2022-11-25T00:44:55.583Z,114.15
2022-11-25T00:45:40.713Z,121.96
2022-11-25T00:46:25.908Z,104.40
2022-11-25T00:47:10.702Z,100.49
2022-11-25T00:47:56.267Z,100.49
2022-11-25T00:48:40.860Z,105.37
2022-11-25T00:49:25.925Z,104.40
2022-11-25T00:50:11.180Z,100.90
2022-11-25T00:50:56.130Z,109.63
2022-11-25T00:51:41.207Z,117.40
2022-11-25T00:52:26.051Z,100.90
2022-11-25T00:53:11.102Z,91.20
2022-11-25T00:53:58.909Z,98.31
2022-11-25T00:54:41.209Z,93.14
2022-11-25T00:55:26.372Z,105.75
2022-11-25T00:56:11.530Z,109.63
2022-11-25T00:56:56.687Z,96.05
2022-11-25T00:57:41.539Z,99.93
2022-11-25T00:58:26.435Z,100.90
2022-11-25T00:59:11.450Z,120.03
2022-11-25T00:59:56.522Z,130.98
2022-11-25T01:00:41.729Z,123.87
2022-11-25T01:01:26.551Z,122.25
2022-11-25T01:02:11.749Z,126.75
2022-11-25T01:02:56.831Z,179.49
2022-11-25T01:03:41.687Z,159.11
2022-11-25T01:04:26.741Z,214.42
2022-11-25T01:05:12.161Z,214.13
2022-11-25T01:05:57.259Z,189.19
2022-11-25T01:06:42.012Z,130.98
2022-11-25T01:07:26.881Z,123.22
2022-11-25T01:08:12.024Z,126.13
2022-11-25T01:08:57.385Z,122.25
2022-11-25T01:09:42.028Z,127.10
2022-11-25T01:10:27.396Z,114.48
2022-11-25T01:11:12.456Z,127.10
2022-11-25T01:11:57.545Z,143.59
2022-11-25T01:12:42.373Z,217.33
2022-11-25T01:13:27.517Z,139.23
2022-11-25T01:14:12.474Z,179.49
2022-11-25T01:14:57.818Z,179.49
2022-11-25T01:15:42.387Z,134.86
2022-11-25T01:16:27.986Z,192.05
2022-11-25T01:17:12.802Z,150.38
2022-11-25T01:17:57.781Z,158.14
2022-11-25T01:18:43.531Z,236.73
2022-11-25T01:19:28.369Z,235.76
2022-11-25T01:20:13.040Z,224.12
2022-11-25T01:20:58.185Z,228.24
2022-11-25T01:21:43.162Z,231.88
2022-11-25T01:22:27.699Z,218.30
2022-11-25T01:23:13.258Z,227.28
2022-11-25T01:23:58.461Z,220.51
2022-11-25T01:24:43.495Z,229.21
2022-11-25T01:25:28.220Z,212.77
2022-11-25T01:26:13.272Z,234.79
2022-11-25T01:26:58.446Z,212.48
2022-11-25T01:27:43.695Z,141.15
2022-11-25T01:28:28.655Z,186.28
2022-11-25T01:29:13.809Z,186.28
2022-11-25T01:29:58.860Z,104.45
2022-11-25T01:30:43.614Z,100.58
2022-11-25T01:31:28.750Z,92.84
2022-11-25T01:32:13.847Z,91.88
2022-11-25T01:32:58.983Z,113.15
2022-11-25T01:33:44.272Z,209.87
2022-11-25T01:34:29.202Z,246.62
2022-11-25T01:35:14.664Z,246.62
2022-11-25T01:35:59.222Z,292.07
2022-11-25T01:36:44.180Z,316.29
2022-11-25T01:37:29.427Z,131.95
2022-11-25T01:38:14.480Z,145.07
2022-11-25T01:38:59.648Z,107.69
2022-11-25T01:39:44.400Z,301.74
2022-11-25T01:40:29.650Z,284.27
2022-11-25T01:41:14.719Z,281.36
2022-11-25T01:41:59.970Z,257.11
2022-11-25T01:42:44.853Z,265.84
2022-11-25T01:43:30.286Z,273.60
2022-11-25T01:44:14.939Z,274.57
2022-11-25T01:44:59.892Z,264.06
2022-11-25T01:45:45.377Z,174.08
2022-11-25T01:46:29.904Z,165.91
2022-11-25T01:47:15.178Z,157.17
2022-11-25T01:48:00.429Z,127.10
2022-11-25T01:48:45.073Z,116.06
2022-11-25T01:49:30.145Z,142.17
2022-11-25T01:50:15.383Z,227.28
2022-11-25T01:51:00.444Z,186.66
2022-11-25T01:51:45.299Z,213.74
2022-11-25T01:52:30.660Z,231.14
2022-11-25T01:53:15.613Z,225.34
2022-11-25T01:54:00.671Z,231.14
2022-11-25T01:54:45.728Z,223.41
2022-11-25T01:55:30.682Z,230.18
2022-11-25T01:56:15.946Z,223.41
2022-11-25T01:57:00.791Z,217.60
2022-11-25T01:57:45.952Z,183.76
2022-11-25T01:58:31.009Z,164.41
2022-11-25T01:59:15.967Z,170.22
2022-11-25T02:00:01.529Z,164.89
2022-11-25T02:00:46.031Z,164.89
2022-11-25T02:01:30.955Z,76.10
2022-11-25T02:02:15.998Z,108.66
2022-11-25T02:03:01.451Z,180.46
2022-11-25T02:03:46.355Z,188.22
2022-11-25T02:04:31.250Z,199.86
2022-11-25T02:05:16.519Z,200.69
2022-11-25T02:06:01.571Z,189.19
2022-11-25T02:06:46.324Z,189.19
2022-11-25T02:07:31.449Z,189.19
2022-11-25T02:08:16.428Z,173.67
2022-11-25T02:09:01.304Z,186.28
2022-11-25T02:09:46.546Z,201.80
2022-11-25T02:10:31.602Z,197.45
2022-11-25T02:11:16.357Z,192.90
2022-11-25T02:12:02.026Z,192.90
2022-11-25T02:12:46.727Z,189.95
2022-11-25T02:13:32.015Z,156.19
2022-11-25T02:14:16.887Z,324.79
2022-11-25T02:15:01.948Z,324.79
2022-11-25T02:15:46.900Z,320.85
2022-11-25T02:16:32.194Z,337.23
2022-11-25T02:17:17.111Z,324.79
2022-11-25T02:18:02.061Z,332.66
2022-11-25T02:18:46.913Z,331.05
2022-11-25T02:19:32.072Z,336.61
2022-11-25T02:20:17.131Z,323.19
2022-11-25T02:21:02.226Z,84.64
2022-11-25T02:21:47.764Z,156.49
2022-11-25T02:22:32.916Z,347.42
2022-11-25T02:23:17.437Z,334.63
2022-11-25T02:24:03.064Z,334.22
2022-11-25T02:24:47.777Z,333.01
2022-11-25T02:25:32.577Z,331.78
2022-11-25T02:26:17.681Z,331.78
2022-11-25T02:27:03.151Z,331.78
2022-11-25T02:27:47.941Z,331.78
2022-11-25T02:28:32.956Z,100.72
2022-11-25T02:29:18.016Z,100.72
2022-11-25T02:30:03.377Z,114.71
2022-11-25T02:30:47.928Z,115.53
2022-11-25T02:31:33.196Z,98.75
2022-11-25T02:32:18.297Z,99.73
2022-11-25T02:33:03.396Z,99.87
2022-11-25T02:33:48.860Z,131.33
2022-11-25T02:34:33.645Z,113.38
2022-11-25T02:35:18.357Z,105.08
2022-11-25T02:36:04.139Z,110.75
2022-11-25T02:36:48.594Z,93.18
2022-11-25T02:37:33.730Z,94.06
2022-11-25T02:38:18.604Z,108.16
2022-11-25T02:39:03.647Z,83.06
2022-11-25T02:39:49.057Z,115.85
2022-11-25T02:40:33.862Z,334.67
2022-11-25T02:41:18.710Z,334.06
2022-11-25T02:42:03.870Z,109.04
2022-11-25T02:42:48.826Z,118.09
2022-11-25T02:43:34.288Z,90.30
2022-11-25T02:44:19.143Z,78.39
2022-11-25T02:45:04.091Z,90.46
2022-11-25T02:45:49.216Z,99.41
2022-11-25T02:46:34.319Z,100.40
2022-11-25T02:47:18.859Z,97.25
2022-11-25T02:48:04.103Z,86.33
2022-11-25T02:49:08.558Z,90.30
2022-11-25T02:49:34.245Z,99.23
2022-11-25T02:50:19.079Z,114.32
2022-11-25T02:51:04.494Z,120.38
2022-11-25T02:51:49.607Z,196.12
2022-11-25T02:52:34.381Z,127.34
2022-11-25T02:53:19.515Z,112.42
2022-11-25T02:54:04.878Z,125.03
2022-11-25T02:54:50.288Z,154.20
2022-11-25T02:55:34.664Z,175.09
2022-11-25T02:56:20.154Z,347.21
2022-11-25T02:57:04.921Z,356.16
2022-11-25T02:57:50.054Z,343.96
2022-11-25T02:58:34.906Z,345.96
2022-11-25T02:59:19.994Z,350.92
2022-11-25T03:00:05.283Z,352.90
2022-11-25T03:00:50.187Z,355.87
2022-11-25T03:01:35.057Z,361.13
2022-11-25T03:02:20.261Z,357.15
2022-11-25T03:03:05.243Z,216.88
2022-11-25T03:03:49.957Z,358.15
2022-11-25T03:04:35.584Z,357.88
2022-11-25T03:05:20.516Z,362.85
2022-11-25T03:06:05.515Z,355.89
2022-11-25T03:06:50.332Z,362.13
2022-11-25T03:07:35.964Z,358.15
2022-11-25T03:08:20.584Z,301.67
2022-11-25T03:09:05.771Z,361.85
2022-11-25T03:09:50.751Z,366.82
2022-11-25T03:10:35.701Z,362.13
2022-11-25T03:11:21.079Z,351.18
2022-11-25T03:12:06.024Z,342.23
2022-11-25T03:12:51.027Z,335.27
2022-11-25T03:13:35.875Z,130.99
2022-11-25T03:14:21.197Z,127.88
2022-11-25T03:15:06.250Z,121.28
2022-11-25T03:15:51.103Z,184.57
2022-11-25T03:16:36.343Z,357.15
2022-11-25T03:17:21.319Z,357.15
2022-11-25T03:18:06.271Z,233.09
2022-11-25T03:18:51.433Z,233.09
2022-11-25T03:19:36.485Z,359.39
2022-11-25T03:20:21.746Z,371.33
2022-11-25T03:21:06.598Z,366.11
2022-11-25T03:21:51.652Z,370.09
2022-11-25T03:22:36.505Z,373.32
2022-11-25T03:23:21.662Z,375.31
2022-11-25T03:24:06.933Z,373.32
2022-11-25T03:24:52.097Z,376.54
2022-11-25T03:25:36.841Z,377.53
2022-11-25T03:26:21.697Z,369.76
2022-11-25T03:27:07.563Z,377.53
2022-11-25T03:27:51.809Z,377.53
2022-11-25T03:28:36.963Z,375.54
2022-11-25T03:29:22.143Z,363.59
2022-11-25T03:30:06.971Z,366.57
2022-11-25T03:30:51.984Z,370.56
2022-11-25T03:31:37.160Z,357.61
2022-11-25T03:32:22.440Z,357.61
2022-11-25T03:33:07.911Z,378.53
2022-11-25T03:33:52.352Z,378.53
2022-11-25T03:34:37.931Z,366.57
2022-11-25T03:35:22.799Z,370.09
2022-11-25T03:36:07.737Z,369.76
2022-11-25T03:36:52.636Z,181.57
2022-11-25T03:37:38.141Z,368.57
2022-11-25T03:38:23.102Z,372.08
2022-11-25T03:39:08.488Z,372.08
2022-11-25T03:39:52.799Z,361.83
2022-11-25T03:40:37.757Z,371.55
2022-11-25T03:41:23.528Z,379.04
2022-11-25T03:42:07.925Z,368.10
2022-11-25T03:42:53.196Z,367.57
2022-11-25T03:43:38.184Z,361.85
2022-11-25T03:44:23.422Z,371.33
2022-11-25T03:45:08.193Z,366.11
2022-11-25T03:45:53.213Z,351.82
2022-11-25T03:46:38.336Z,340.54
2022-11-25T03:47:25.716Z,340.54
2022-11-25T03:48:08.422Z,338.86
2022-11-25T03:48:53.481Z,357.80
2022-11-25T03:49:38.304Z,362.78
2022-11-25T03:50:23.907Z,362.78
2022-11-25T03:51:08.643Z,359.79
2022-11-25T03:51:53.807Z,355.12
2022-11-25T03:52:38.772Z,362.11
2022-11-25T03:53:23.935Z,363.24
2022-11-25T03:54:08.876Z,179.48
2022-11-25T03:54:53.934Z,368.09
2022-11-25T03:55:39.548Z,364.58
2022-11-25T03:56:24.040Z,353.26
2022-11-25T03:57:09.401Z,361.11
2022-11-25T03:57:54.070Z,355.12
2022-11-25T03:58:39.516Z,360.11
2022-11-25T03:59:24.272Z,366.10
2022-11-25T04:00:09.323Z,362.24
2022-11-25T04:00:54.542Z,353.26
2022-11-25T04:01:43.994Z,360.11
2022-11-25T04:02:24.677Z,362.11
2022-11-25T04:03:09.448Z,359.11
2022-11-25T04:03:54.504Z,362.24
2022-11-25T04:04:39.660Z,360.24
2022-11-25T04:05:24.613Z,359.24
2022-11-25T04:06:09.722Z,363.59
2022-11-25T04:06:54.623Z,361.24
2022-11-25T04:07:40.109Z,350.26
2022-11-25T04:08:24.944Z,347.38
2022-11-25T04:09:09.797Z,362.35
2022-11-25T04:09:54.837Z,260.46
2022-11-25T04:10:40.005Z,359.24
2022-11-25T04:11:24.863Z,358.25
2022-11-25T04:12:10.130Z,348.14
2022-11-25T04:12:55.539Z,360.24
2022-11-25T04:13:40.338Z,355.25
2022-11-25T04:14:25.504Z,353.26
2022-11-25T04:15:10.139Z,293.11
2022-11-25T04:15:55.201Z,336.17
2022-11-25T04:16:40.138Z,348.38
2022-11-25T04:17:27.050Z,348.38
2022-11-25T04:18:10.570Z,345.38
2022-11-25T04:18:55.532Z,342.28
2022-11-25T04:19:40.289Z,353.26
2022-11-25T04:20:25.537Z,356.25
2022-11-25T04:21:10.789Z,362.24
2022-11-25T04:21:55.551Z,349.27
2022-11-25T04:22:41.634Z,347.14
2022-11-25T04:23:25.976Z,349.19
2022-11-25T04:24:11.634Z,349.19
2022-11-25T04:24:56.037Z,352.95
2022-11-25T04:25:41.132Z,352.49
2022-11-25T04:26:26.201Z,359.39
2022-11-25T04:27:11.140Z,354.41
2022-11-25T04:27:55.661Z,359.14
2022-11-25T04:28:41.051Z,373.55
2022-11-25T04:29:26.313Z,356.80
2022-11-25T04:30:11.267Z,374.74
2022-11-25T04:30:56.383Z,372.75
2022-11-25T04:31:41.615Z,363.78
2022-11-25T04:32:27.321Z,358.12
2022-11-25T04:33:11.494Z,363.10
2022-11-25T04:33:57.427Z,368.57
2022-11-25T04:34:41.504Z,363.10
2022-11-25T04:35:26.440Z,367.09
2022-11-25T04:36:11.413Z,367.77
2022-11-25T04:36:56.629Z,354.81
2022-11-25T04:37:41.421Z,348.64
2022-11-25T04:38:26.581Z,358.12
2022-11-25T04:39:11.529Z,353.13
2022-11-25T04:39:56.654Z,365.10
2022-11-25T04:40:41.385Z,364.10
2022-11-25T04:41:26.532Z,367.77
2022-11-25T04:42:11.812Z,363.78
2022-11-25T04:43:02.444Z,360.79
2022-11-25T04:43:41.674Z,353.81
2022-11-25T04:44:26.663Z,350.14
2022-11-25T04:45:23.333Z,356.61
2022-11-25T04:46:13.629Z,360.79
2022-11-25T04:46:42.198Z,356.80
2022-11-25T04:47:26.841Z,346.84
2022-11-25T04:48:11.915Z,137.66
2022-11-25T04:48:57.162Z,335.17
2022-11-25T04:49:42.834Z,314.68
2022-11-25T04:50:27.073Z,328.31
2022-11-25T04:51:11.822Z,261.70
2022-11-25T04:51:56.889Z,261.70
2022-11-25T04:52:42.238Z,261.70
2022-11-25T04:53:27.412Z,374.74
2022-11-25T04:54:16.163Z,307.80
2022-11-25T04:54:57.485Z,379.20
2022-11-25T04:55:42.264Z,391.18
2022-11-25T04:56:27.627Z,361.24
2022-11-25T04:57:12.578Z,360.60
2022-11-25T04:57:57.844Z,354.13
2022-11-25T04:58:42.369Z,349.64
2022-11-25T04:59:27.646Z,372.08
2022-11-25T05:00:13.139Z,375.21
2022-11-25T05:00:57.805Z,360.11
2022-11-25T05:01:42.832Z,361.79
2022-11-25T05:02:28.204Z,360.24
2022-11-25T05:03:12.935Z,369.09
2022-11-25T05:03:58.092Z,353.26
2022-11-25T05:04:43.039Z,346.15
2022-11-25T05:05:28.403Z,346.15
2022-11-25T05:06:13.249Z,354.25
2022-11-25T05:06:58.409Z,358.25
2022-11-25T05:07:43.372Z,372.34
2022-11-25T05:08:28.322Z,363.45
2022-11-25T05:09:13.784Z,368.44
2022-11-25T05:09:58.469Z,322.51
2022-11-25T05:10:43.455Z,336.40
2022-11-25T05:11:28.670Z,336.40
2022-11-25T05:12:13.604Z,333.41
2022-11-25T05:12:58.867Z,343.39
2022-11-25T05:13:44.022Z,339.39
2022-11-25T05:14:29.076Z,338.49
2022-11-25T05:15:14.131Z,335.49
2022-11-25T05:15:59.406Z,343.39
2022-11-25T05:16:44.378Z,338.49
2022-11-25T05:17:29.205Z,330.19
2022-11-25T05:18:14.685Z,342.48
2022-11-25T05:18:59.627Z,339.49
2022-11-25T05:19:44.160Z,325.51
2022-11-25T05:20:29.430Z,339.49
2022-11-25T05:21:14.380Z,335.49
2022-11-25T05:21:59.641Z,335.49
2022-11-25T05:22:44.395Z,339.57
2022-11-25T05:23:29.547Z,340.57
2022-11-25T05:24:14.502Z,329.58
2022-11-25T05:24:59.760Z,337.70
2022-11-25T05:25:44.305Z,156.80
2022-11-25T05:26:29.470Z,312.60
2022-11-25T05:27:14.526Z,329.50
2022-11-25T05:27:59.698Z,317.43
2022-11-25T05:28:44.837Z,325.51
2022-11-25T05:29:29.906Z,158.67
2022-11-25T05:30:14.553Z,321.52
2022-11-25T05:31:00.073Z,191.01
2022-11-25T05:31:45.376Z,152.87
2022-11-25T05:32:30.226Z,303.73
2022-11-25T05:33:15.378Z,334.71
2022-11-25T05:34:00.459Z,329.71
2022-11-25T05:34:45.501Z,336.70
2022-11-25T05:35:30.247Z,326.76
2022-11-25T05:36:15.511Z,327.76
2022-11-25T05:37:00.870Z,320.72
2022-11-25T05:37:45.218Z,326.59
2022-11-25T05:38:30.574Z,332.50
2022-11-25T05:39:15.842Z,327.71
2022-11-25T05:40:00.583Z,331.71
2022-11-25T05:40:45.513Z,325.59
2022-11-25T05:41:30.593Z,330.76
2022-11-25T05:42:15.651Z,328.71
2022-11-25T05:43:01.117Z,324.76
2022-11-25T05:43:45.762Z,330.76
2022-11-25T05:44:31.536Z,160.88
2022-11-25T05:45:16.079Z,328.76
2022-11-25T05:46:01.081Z,331.76
2022-11-25T05:46:46.096Z,328.76
2022-11-25T05:47:31.040Z,166.88
2022-11-25T05:48:15.896Z,329.76
2022-11-25T05:49:00.920Z,327.71
2022-11-25T05:49:46.523Z,334.40
2022-11-25T05:50:31.483Z,325.59
2022-11-25T05:51:16.221Z,331.58
2022-11-25T05:52:01.278Z,158.80
2022-11-25T05:52:46.539Z,334.58
2022-11-25T05:53:31.286Z,332.71
2022-11-25T05:54:16.558Z,333.58
2022-11-25T05:55:02.017Z,323.59
2022-11-25T05:55:46.814Z,328.71
2022-11-25T05:56:31.409Z,326.71
2022-11-25T05:57:16.778Z,325.71
2022-11-25T05:58:02.160Z,318.77
2022-11-25T05:58:46.991Z,313.77
2022-11-25T05:59:31.950Z,332.80
2022-11-25T06:00:16.983Z,333.76
2022-11-25T06:01:02.266Z,162.88
2022-11-25T06:01:47.215Z,324.76
2022-11-25T06:02:32.332Z,331.76
2022-11-25T06:03:17.751Z,334.76
2022-11-25T06:04:02.193Z,330.80
2022-11-25T06:04:47.437Z,327.80
2022-11-25T06:05:32.493Z,334.71
2022-11-25T06:06:17.364Z,332.71
2022-11-25T06:07:03.537Z,333.76
2022-11-25T06:07:47.514Z,329.76
2022-11-25T06:08:32.622Z,334.80
2022-11-25T06:09:17.704Z,333.80
2022-11-25T06:10:03.416Z,332.80
2022-11-25T06:10:47.701Z,316.81
2022-11-25T06:11:32.664Z,323.76
2022-11-25T06:12:18.108Z,158.91
2022-11-25T06:13:03.272Z,326.76
2022-11-25T06:13:48.330Z,153.40
2022-11-25T06:14:33.175Z,323.20
2022-11-25T06:15:18.430Z,323.20
2022-11-25T06:16:07.535Z,160.92
2022-11-25T06:16:48.131Z,324.84
2022-11-25T06:17:33.398Z,329.84
2022-11-25T06:18:18.555Z,165.92
2022-11-25T06:19:03.818Z,327.84
2022-11-25T06:19:48.601Z,327.84
2022-11-25T06:20:33.621Z,331.84
2022-11-25T06:21:18.579Z,324.76
2022-11-25T06:22:03.332Z,331.84
2022-11-25T06:22:48.465Z,330.76
2022-11-25T06:23:33.642Z,319.81
2022-11-25T06:24:19.066Z,327.80
2022-11-25T06:25:04.261Z,328.80
2022-11-25T06:25:49.119Z,324.76
2022-11-25T06:26:33.991Z,333.71
2022-11-25T06:27:19.094Z,335.70
2022-11-25T06:28:13.646Z,316.60
2022-11-25T06:28:49.274Z,298.55
2022-11-25T06:29:34.091Z,328.41
2022-11-25T06:30:18.943Z,338.40
2022-11-25T06:31:04.332Z,337.40
2022-11-25T06:31:49.278Z,165.70
2022-11-25T06:32:37.404Z,343.39
2022-11-25T06:33:19.270Z,322.20
2022-11-25T06:34:04.638Z,332.41
2022-11-25T06:34:49.689Z,338.40
2022-11-25T06:35:34.570Z,154.67
2022-11-25T06:36:19.910Z,154.67
2022-11-25T06:37:04.760Z,332.30
2022-11-25T06:37:49.833Z,323.32
2022-11-25T06:38:34.770Z,305.36
2022-11-25T06:39:20.133Z,319.33
2022-11-25T06:40:04.878Z,325.32
2022-11-25T06:40:50.761Z,327.31
2022-11-25T06:41:34.994Z,319.33
2022-11-25T06:42:20.155Z,325.32
2022-11-25T06:43:05.316Z,323.32
2022-11-25T06:43:50.158Z,141.70
2022-11-25T06:44:35.781Z,331.18
2022-11-25T06:45:20.686Z,338.29
2022-11-25T06:46:05.489Z,326.20
2022-11-25T06:46:50.661Z,164.59
2022-11-25T06:47:35.814Z,327.19
2022-11-25T06:48:20.913Z,328.19
2022-11-25T06:49:05.759Z,311.23
2022-11-25T06:49:50.721Z,323.20
2022-11-25T06:50:36.649Z,171.58
2022-11-25T06:51:20.935Z,333.18
2022-11-25T06:52:05.809Z,327.73
2022-11-25T06:52:50.838Z,330.19
2022-11-25T06:53:36.009Z,332.71
2022-11-25T06:54:21.114Z,329.19
2022-11-25T06:55:06.110Z,326.20
2022-11-25T06:55:51.149Z,339.16
2022-11-25T06:56:36.330Z,331.89
2022-11-25T06:57:21.555Z,166.59
2022-11-25T06:58:28.319Z,166.59
2022-11-25T06:58:51.296Z,323.20
2022-11-25T06:59:36.452Z,148.63
2022-11-25T07:00:21.516Z,164.59
2022-11-25T07:01:06.769Z,236.08
2022-11-25T07:01:51.770Z,265.81
2022-11-25T07:02:41.727Z,317.76
2022-11-25T07:03:21.855Z,322.20
2022-11-25T07:04:07.302Z,154.62
2022-11-25T07:04:51.778Z,294.27
2022-11-25T07:05:36.592Z,323.20
2022-11-25T07:06:21.886Z,313.23
2022-11-25T07:07:06.810Z,319.21
2022-11-25T07:07:51.900Z,296.27
2022-11-25T07:08:37.382Z,146.64
2022-11-25T07:09:22.118Z,326.20
2022-11-25T07:10:07.144Z,147.64
2022-11-25T07:10:52.224Z,301.26
2022-11-25T07:11:37.058Z,323.20
2022-11-25T07:12:22.002Z,323.20
2022-11-25T07:13:07.467Z,321.21
2022-11-25T07:13:52.463Z,300.26
2022-11-25T07:14:37.122Z,327.19
2022-11-25T07:15:22.431Z,286.29
2022-11-25T07:16:07.689Z,286.29
2022-11-25T07:16:52.616Z,232.43
2022-11-25T07:17:37.504Z,159.61
2022-11-25T07:18:22.759Z,194.52
2022-11-25T07:19:07.736Z,131.56
2022-11-25T07:19:52.664Z,192.35
2022-11-25T07:20:37.822Z,192.35
2022-11-25T07:21:22.989Z,124.69
2022-11-25T07:22:08.045Z,96.57
2022-11-25T07:22:52.893Z,88.70
2022-11-25T07:23:37.867Z,91.69
2022-11-25T07:24:23.722Z,105.65
2022-11-25T07:25:08.272Z,124.58
2022-11-25T07:25:53.118Z,120.60
2022-11-25T07:26:38.221Z,103.65
2022-11-25T07:27:23.536Z,99.67
2022-11-25T07:28:08.590Z,91.69
2022-11-25T07:28:53.425Z,67.77
2022-11-25T07:30:18.645Z,259.13
2022-11-25T07:31:21.632Z,150.50
2022-11-25T07:31:27.159Z,63.79
2022-11-25T07:31:53.462Z,64.78
2022-11-25T07:32:38.932Z,71.76
2022-11-25T07:33:23.835Z,69.77
2022-11-25T07:34:08.746Z,58.74
2022-11-25T07:34:53.793Z,62.79
2022-11-25T07:35:38.848Z,70.68
2022-11-25T07:36:24.112Z,61.79
2022-11-25T07:37:08.965Z,67.77
2022-11-25T07:37:54.438Z,63.75
2022-11-25T07:38:43.489Z,58.77
2022-11-25T07:39:24.335Z,51.80
2022-11-25T07:40:09.103Z,55.78
2022-11-25T07:40:54.302Z,50.80
2022-11-25T07:41:39.093Z,64.75
2022-11-25T07:42:24.154Z,78.69
2022-11-25T07:43:09.473Z,75.71
2022-11-25T07:43:54.269Z,71.72
2022-11-25T07:44:39.456Z,72.72
2022-11-25T07:45:24.511Z,72.72
2022-11-25T07:46:09.498Z,81.68
2022-11-25T07:46:54.754Z,69.73
2022-11-25T07:47:39.754Z,81.68
2022-11-25T07:48:24.709Z,76.70
2022-11-25T07:49:09.569Z,69.73
2022-11-25T07:49:54.616Z,78.69
2022-11-25T07:50:39.871Z,77.70
2022-11-25T07:51:25.039Z,70.72
2022-11-25T07:52:09.998Z,70.72
2022-11-25T07:52:54.749Z,71.72
2022-11-25T07:53:40.204Z,78.69
2022-11-25T07:54:25.056Z,75.71
2022-11-25T07:55:10.419Z,74.71
2022-11-25T07:55:55.473Z,71.63
2022-11-25T07:56:40.223Z,74.71
2022-11-25T07:57:25.380Z,68.65
2022-11-25T07:58:10.131Z,71.72
2022-11-25T07:58:55.293Z,71.72
2022-11-25T07:59:40.555Z,62.76
2022-11-25T08:00:25.613Z,62.76
2022-11-25T08:01:10.520Z,67.74
2022-11-25T08:01:55.639Z,59.77
2022-11-25T08:02:40.845Z,73.71
2022-11-25T08:03:25.833Z,68.73
2022-11-25T08:04:12.786Z,58.77
2022-11-25T08:04:55.744Z,58.77
2022-11-25T08:05:41.004Z,57.78
2022-11-25T08:06:25.771Z,57.70
2022-11-25T08:07:11.091Z,56.75
2022-11-25T08:07:55.770Z,58.74
2022-11-25T08:08:40.977Z,71.68
2022-11-25T08:09:26.114Z,75.66
2022-11-25T08:10:11.151Z,64.71
2022-11-25T08:10:56.402Z,62.63
2022-11-25T08:11:41.149Z,65.70
2022-11-25T08:12:26.209Z,62.72
2022-11-25T08:13:11.264Z,64.71
2022-11-25T08:13:56.401Z,62.72
2022-11-25T08:14:41.478Z,58.74
2022-11-25T08:15:26.538Z,106.52
2022-11-25T08:16:11.532Z,114.49
2022-11-25T08:16:56.407Z,114.49
2022-11-25T08:17:41.706Z,110.50
2022-11-25T08:18:26.734Z,108.36
2022-11-25T08:19:11.811Z,109.51
2022-11-25T08:19:56.710Z,112.49
2022-11-25T08:20:41.563Z,112.49
2022-11-25T08:21:26.572Z,113.49
2022-11-25T08:22:11.759Z,118.47
2022-11-25T08:22:57.110Z,115.48
2022-11-25T08:23:42.065Z,120.46
2022-11-25T08:24:26.905Z,120.46
2022-11-25T08:25:11.864Z,120.46
2022-11-25T08:25:57.445Z,134.40
2022-11-25T08:26:42.007Z,108.51
2022-11-25T08:27:27.488Z,112.49
2022-11-25T08:28:12.402Z,110.35
2022-11-25T08:28:57.780Z,107.52
2022-11-25T08:29:42.985Z,94.51
2022-11-25T08:30:28.632Z,56.75
2022-11-25T08:31:13.163Z,72.62
2022-11-25T08:31:59.133Z,61.68
2022-11-25T08:32:42.873Z,67.48
2022-11-25T08:33:27.806Z,70.63
2022-11-25T08:34:12.877Z,64.67
2022-11-25T08:34:58.223Z,68.65
2022-11-25T08:35:42.666Z,62.68
2022-11-25T08:36:27.706Z,67.65
2022-11-25T08:37:13.026Z,55.71
2022-11-25T08:37:58.254Z,55.71
2022-11-25T08:38:43.932Z,52.73
2022-11-25T08:39:51.009Z,52.73
2022-11-25T08:40:13.468Z,80.58
2022-11-25T08:40:58.298Z,72.62
2022-11-25T08:41:43.263Z,66.66
2022-11-25T08:42:28.304Z,73.62
2022-11-25T08:43:13.443Z,79.59
2022-11-25T08:43:58.464Z,75.61
2022-11-25T08:44:43.596Z,76.60
2022-11-25T08:45:28.644Z,74.61
2022-11-25T08:46:14.194Z,78.59
2022-11-25T08:46:59.163Z,71.63
2022-11-25T08:47:44.136Z,71.63
2022-11-25T08:48:28.711Z,75.61
2022-11-25T08:49:13.459Z,73.62
2022-11-25T08:49:59.175Z,69.64
2022-11-25T08:50:44.048Z,70.46
2022-11-25T08:51:28.763Z,78.59
2022-11-25T08:52:14.059Z,64.67
2022-11-25T08:52:59.314Z,74.61
2022-11-25T08:53:44.648Z,65.66
2022-11-25T08:54:29.211Z,67.65
2022-11-25T08:55:14.010Z,70.63
2022-11-25T08:55:59.719Z,67.65
2022-11-25T08:56:44.435Z,59.69
2022-11-25T08:57:29.611Z,57.70
2022-11-25T08:58:14.481Z,58.70
2022-11-25T08:58:59.604Z,58.70
2022-11-25T08:59:44.461Z,60.69
2022-11-25T09:00:29.551Z,60.69
2022-11-25T09:01:14.791Z,57.70
2022-11-25T09:02:00.379Z,62.63
2022-11-25T09:02:44.756Z,55.67
2022-11-25T09:03:29.777Z,55.67
2022-11-25T09:04:14.896Z,59.65
2022-11-25T09:05:00.420Z,56.66
2022-11-25T09:05:45.031Z,53.68
2022-11-25T09:06:29.981Z,54.68
2022-11-25T09:07:14.888Z,54.68
2022-11-25T09:08:00.285Z,53.68
2022-11-25T09:08:45.359Z,230.63
2022-11-25T09:09:30.629Z,95.43
2022-11-25T09:10:15.534Z,84.50
2022-11-25T09:11:00.500Z,76.55
2022-11-25T09:11:45.290Z,76.55
2022-11-25T09:12:30.517Z,76.55
2022-11-25T09:13:15.620Z,70.38
2022-11-25T09:14:00.504Z,66.61
2022-11-25T09:14:45.617Z,76.55
2022-11-25T09:15:30.567Z,68.59
2022-11-25T09:16:15.820Z,294.25
2022-11-25T09:17:01.327Z,169.99
2022-11-25T09:17:45.883Z,169.00
2022-11-25T09:18:31.695Z,301.35
2022-11-25T09:19:15.940Z,72.57
2022-11-25T09:20:01.568Z,64.62
2022-11-25T09:20:45.859Z,60.64
2022-11-25T09:21:31.096Z,63.62
2022-11-25T09:22:15.915Z,60.64
2022-11-25T09:23:01.542Z,63.62
2022-11-25T09:23:46.505Z,73.56
2022-11-25T09:24:31.027Z,63.62
2022-11-25T09:25:16.393Z,276.57
2022-11-25T09:26:02.375Z,104.38